createdAt,value
2022-09-07T00:01:04.514Z,3.05
2022-09-07T00:06:15.706Z,2.80
2022-09-07T00:11:20.045Z,3.03
2022-09-07T00:16:30.567Z,3.60
2022-09-07T00:21:51.125Z,3.38
2022-09-07T00:26:56.572Z,3.95
2022-09-07T00:31:58.606Z,2.85
2022-09-07T00:37:19.613Z,3.30
2022-09-07T00:42:22.872Z,2.80
2022-09-07T00:47:49.825Z,4.65
2022-09-07T00:52:58.597Z,2.78
2022-09-07T00:58:01.224Z,3.05
2022-09-07T01:03:05.750Z,2.50
2022-09-07T01:08:27.234Z,2.33
2022-09-07T01:13:49.285Z,3.00
2022-09-07T01:19:22.365Z,2.40
2022-09-07T01:24:53.784Z,1.98
2022-09-07T01:30:06.242Z,2.10
2022-09-07T01:35:19.053Z,2.42
2022-09-07T01:40:42.552Z,2.42
2022-09-07T01:45:45.925Z,2.95
2022-09-07T01:50:56.613Z,2.28
2022-09-07T01:56:18.904Z,2.58
2022-09-07T02:01:50.469Z,2.17
2022-09-07T02:07:23.067Z,2.10
2022-09-07T02:12:45.225Z,2.47
2022-09-07T02:18:08.825Z,2.70
2022-09-07T02:23:20.905Z,2.30
2022-09-07T02:28:30.109Z,2.33
2022-09-07T02:33:50.604Z,2.17
2022-09-07T02:39:22.461Z,3.20
2022-09-07T02:44:44.363Z,2.20
2022-09-07T02:50:26.324Z,2.92
2022-09-07T02:55:49.064Z,2.50
2022-09-07T03:01:13.839Z,2.40
2022-09-07T03:06:46.029Z,2.33
2022-09-07T03:12:07.564Z,2.45
2022-09-07T03:17:28.363Z,2.40
2022-09-07T03:22:30.606Z,2.80
2022-09-07T03:27:33.606Z,2.17
2022-09-07T03:32:38.413Z,2.65
2022-09-07T03:37:40.584Z,2.40
2022-09-07T03:42:43.905Z,2.90
2022-09-07T03:48:05.124Z,2.25
2022-09-07T03:53:26.185Z,2.50
2022-09-07T03:58:33.166Z,2.40
2022-09-07T04:03:37.885Z,2.42
2022-09-07T04:08:44.604Z,2.60
2022-09-07T04:13:47.173Z,2.47
2022-09-07T04:18:50.185Z,2.70
2022-09-07T04:23:53.086Z,4.75
2022-09-07T04:28:55.586Z,2.85
2022-09-07T04:33:57.768Z,2.10
2022-09-07T04:39:18.495Z,2.17
2022-09-07T04:44:20.666Z,2.47
2022-09-07T04:49:23.646Z,2.60
2022-09-07T04:54:27.987Z,1.92
2022-09-07T04:59:30.318Z,2.20
2022-09-07T05:04:35.787Z,1.70
2022-09-07T05:09:38.366Z,2.53
2022-09-07T05:14:43.426Z,1.80
2022-09-07T05:20:04.646Z,3.42
2022-09-07T05:25:08.888Z,2.97
2022-09-07T05:35:35.620Z,2.38
2022-09-07T05:40:58.486Z,3.05
2022-09-07T05:46:00.683Z,3.38
2022-09-07T05:51:35.633Z,2.20
2022-09-07T05:56:40.345Z,2.70
2022-09-07T06:01:42.537Z,3.33
2022-09-07T06:06:54.651Z,3.45
2022-09-07T06:12:07.235Z,3.33
2022-09-07T06:17:10.108Z,3.30
2022-09-07T06:22:31.407Z,3.28
2022-09-07T06:27:33.964Z,2.88
2022-09-07T06:37:44.664Z,3.00
2022-09-07T06:43:05.194Z,2.72
2022-09-07T06:48:28.356Z,3.55
2022-09-07T06:58:42.438Z,3.45
2022-09-07T07:04:03.374Z,8.55
2022-09-07T07:09:08.103Z,3.75
2022-09-07T07:14:34.422Z,3.58
2022-09-07T07:19:59.541Z,4.05
2022-09-07T07:25:23.274Z,2.85
2022-09-07T07:30:44.559Z,3.50
2022-09-07T07:35:46.566Z,3.28
2022-09-07T07:46:19.159Z,3.95
2022-09-07T07:51:23.046Z,4.00
2022-09-07T07:56:25.565Z,4.97
2022-09-07T08:01:27.919Z,5.60
2022-09-07T08:06:29.967Z,3.30
2022-09-07T08:11:50.568Z,2.67
2022-09-07T08:16:52.793Z,2.47
2022-09-07T08:21:55.478Z,2.45
2022-09-07T08:26:59.108Z,2.47
2022-09-07T08:32:19.787Z,1.33
2022-09-07T08:37:25.074Z,1.80
2022-09-07T08:42:51.714Z,1.80
2022-09-07T08:48:18.258Z,1.03
2022-09-07T08:53:22.107Z,2.05
2022-09-07T08:58:49.197Z,2.88
2022-09-07T09:04:27.497Z,1.20
2022-09-07T09:10:15.651Z,1.17
2022-09-07T09:15:56.652Z,1.35
2022-09-07T09:21:22.625Z,1.85
2022-09-07T09:26:32.739Z,1.70
2022-09-07T09:31:37.095Z,1.63
2022-09-07T09:36:44.258Z,2.08
2022-09-07T09:41:47.319Z,2.10
2022-09-07T09:52:43.387Z,1.85
2022-09-07T10:09:02.589Z,1.95
2022-09-07T10:14:04.753Z,3.95
2022-09-07T10:19:21.647Z,3.20
2022-09-07T10:24:43.053Z,2.08
2022-09-07T10:29:46.153Z,2.53
2022-09-07T10:35:34.330Z,2.47
2022-09-07T10:52:15.859Z,2.22
2022-09-07T10:57:41.178Z,2.08
2022-09-07T11:03:29.567Z,1.65
2022-09-07T11:09:19.464Z,1.60
2022-09-07T11:14:56.346Z,1.90
2022-09-07T11:20:23.253Z,1.58
2022-09-07T11:26:06.863Z,2.40
2022-09-07T11:31:20.730Z,1.92
2022-09-07T11:36:25.386Z,2.00
2022-09-07T11:41:32.685Z,2.13
2022-09-07T11:46:59.505Z,1.92
2022-09-07T11:52:14.534Z,2.30
2022-09-07T11:57:53.668Z,1.67
2022-09-07T12:03:22.530Z,2.00
2022-09-07T12:08:45.342Z,2.00
2022-09-07T12:14:06.166Z,2.00
2022-09-07T12:19:30.625Z,2.08
2022-09-07T12:24:36.246Z,1.80
2022-09-07T12:29:45.135Z,1.58
2022-09-07T12:34:54.185Z,2.88
2022-09-07T12:40:33.461Z,1.52
2022-09-07T12:45:54.569Z,1.83
2022-09-07T13:02:53.758Z,1.25
2022-09-07T13:08:09.539Z,1.40
2022-09-07T13:13:14.565Z,1.48
2022-09-07T13:18:35.550Z,1.83
2022-09-07T13:23:41.027Z,1.70
2022-09-07T13:28:56.235Z,1.10
2022-09-07T13:33:58.906Z,1.40
2022-09-07T13:39:14.408Z,0.90
2022-09-07T13:44:26.576Z,1.35
2022-09-07T13:49:56.235Z,1.50
2022-09-07T13:56:12.496Z,0.98
2022-09-07T14:01:33.313Z,0.80
2022-09-07T14:06:37.601Z,0.93
2022-09-07T14:11:50.547Z,1.17
2022-09-07T14:16:52.588Z,1.10
2022-09-07T14:22:05.007Z,1.00
2022-09-07T14:27:19.568Z,1.38
2022-09-07T14:32:25.308Z,1.23
2022-09-07T14:37:48.275Z,1.40
2022-09-07T14:43:38.117Z,1.23
2022-09-07T14:48:51.513Z,1.10
2022-09-07T14:54:33.988Z,1.20
2022-09-07T14:59:43.712Z,1.23
2022-09-07T15:04:50.143Z,1.55
2022-09-07T15:09:52.280Z,1.00
2022-09-07T15:15:37.387Z,1.20
2022-09-07T15:20:59.427Z,2.30
2022-09-07T15:26:02.476Z,1.25
2022-09-07T15:31:54.580Z,1.02
2022-09-07T15:36:54.521Z,1.10
2022-09-07T15:47:47.077Z,1.35
2022-09-07T15:58:55.825Z,2.00
2022-09-07T16:04:16.748Z,1.23
2022-09-07T16:09:21.887Z,1.40
2022-09-07T16:14:25.167Z,1.88
2022-09-07T16:19:48.068Z,1.80
2022-09-07T16:25:09.148Z,2.53
2022-09-07T16:30:15.045Z,2.45
2022-09-07T16:35:17.738Z,1.90
2022-09-07T16:40:42.368Z,2.53
2022-09-07T16:46:07.665Z,2.75
2022-09-07T16:51:16.127Z,2.63
2022-09-07T16:56:39.089Z,2.83
2022-09-07T17:01:41.799Z,3.10
2022-09-07T17:06:43.966Z,2.80
2022-09-07T17:11:46.994Z,2.15
2022-09-07T17:16:49.232Z,1.73
2022-09-07T17:21:51.507Z,2.03
2022-09-07T17:26:55.972Z,1.90
2022-09-07T17:32:25.618Z,1.48
2022-09-07T17:37:28.453Z,1.40
2022-09-07T17:48:36.388Z,1.58
2022-09-07T17:53:42.675Z,1.55
2022-09-07T17:58:45.587Z,1.63
2022-09-07T18:03:50.567Z,1.30
2022-09-07T18:09:11.729Z,1.00
2022-09-07T18:14:17.778Z,1.27
2022-09-07T18:19:23.050Z,1.00
2022-09-07T18:24:25.667Z,1.05
2022-09-07T18:29:34.370Z,1.45
2022-09-07T18:34:40.754Z,1.40
2022-09-07T18:39:43.401Z,1.25
2022-09-07T18:50:08.514Z,1.10
2022-09-07T18:55:11.346Z,1.40
2022-09-07T19:00:14.445Z,1.40
2022-09-07T19:10:38.705Z,1.60
2022-09-07T19:15:43.937Z,1.30
2022-09-07T19:21:16.814Z,1.65
2022-09-07T19:26:42.065Z,1.30
2022-09-07T19:32:05.496Z,1.40
2022-09-07T19:37:28.767Z,1.67
2022-09-07T19:42:38.206Z,1.60
2022-09-07T19:47:40.345Z,2.50
2022-09-07T19:52:42.707Z,1.60
2022-09-07T19:57:46.452Z,3.00
2022-09-07T20:02:49.489Z,1.65
2022-09-07T20:08:10.243Z,1.60
2022-09-07T20:13:31.888Z,1.38
2022-09-07T20:18:55.085Z,0.90
2022-09-07T20:24:15.547Z,0.80
2022-09-07T20:29:27.423Z,0.80
2022-09-07T20:34:33.969Z,1.17
2022-09-07T20:39:55.236Z,0.82
2022-09-07T20:45:18.341Z,1.38
2022-09-07T20:50:39.118Z,1.05
2022-09-07T20:56:12.255Z,1.42
2022-09-07T21:01:17.349Z,2.42
2022-09-07T21:06:23.275Z,1.10
2022-09-07T21:11:34.567Z,2.17
2022-09-07T21:16:37.265Z,2.50
2022-09-07T21:21:57.754Z,2.40
2022-09-07T21:27:00.018Z,2.40
2022-09-07T21:32:02.466Z,2.38
2022-09-07T21:37:04.579Z,2.25
2022-09-07T21:42:06.867Z,1.58
2022-09-07T21:47:09.250Z,1.00
2022-09-07T21:52:11.514Z,1.33
2022-09-07T21:57:13.767Z,1.27
2022-09-07T22:02:16.210Z,1.27
2022-09-07T22:07:36.541Z,2.05
2022-09-07T22:12:38.775Z,1.80
2022-09-07T22:17:45.647Z,1.58
2022-09-07T22:22:53.945Z,1.40
2022-09-07T22:27:56.087Z,1.40
2022-09-07T22:33:00.418Z,2.28
2022-09-07T22:38:02.595Z,1.30
2022-09-07T22:43:09.573Z,2.00
2022-09-07T22:48:11.786Z,0.93
2022-09-07T22:53:13.858Z,0.85
2022-09-07T22:58:34.659Z,1.40
2022-09-07T23:03:58.919Z,1.10
2022-09-07T23:09:22.506Z,0.98
2022-09-07T23:14:25.158Z,1.00
2022-09-07T23:19:27.274Z,0.90
2022-09-07T23:24:29.487Z,1.05
2022-09-07T23:29:50.195Z,0.70
2022-09-07T23:35:14.800Z,0.70
2022-09-07T23:40:37.067Z,0.80
2022-09-07T23:45:58.827Z,1.00
2022-09-07T23:51:00.905Z,1.05
2022-09-07T23:56:03.264Z,1.08
